sensor_id;sensor_type;location;lat;lon;timestamp;P1;durP1;ratioP1;P2;durP2;ratioP2
21591;SDS011;10958;50.892;3.992;2022-09-09T00:02:45;3.45;;;1.92;;
21591;SDS011;10958;50.892;3.992;2022-09-09T00:09:25;5.10;;;2.13;;
21591;SDS011;10958;50.892;3.992;2022-09-09T00:12:21;4.90;;;2.17;;
21591;SDS011;10958;50.892;3.992;2022-09-09T00:31:51;4.95;;;1.88;;
21591;SDS011;10958;50.892;3.992;2022-09-09T00:38:48;6.60;;;1.90;;
21591;SDS011;10958;50.892;3.992;2022-09-09T01:16:03;4.47;;;1.50;;
21591;SDS011;10958;50.892;3.992;2022-09-09T01:28:21;3.50;;;1.23;;
21591;SDS011;10958;50.892;3.992;2022-09-09T01:39:12;5.78;;;1.35;;
21591;SDS011;10958;50.892;3.992;2022-09-09T01:42:57;4.78;;;1.45;;
21591;SDS011;10958;50.892;3.992;2022-09-09T01:52:30;5.82;;;1.85;;
21591;SDS011;10958;50.892;3.992;2022-09-09T01:55:23;4.60;;;1.70;;
21591;SDS011;10958;50.892;3.992;2022-09-09T02:05:38;9.52;;;1.73;;
21591;SDS011;10958;50.892;3.992;2022-09-09T02:09:03;5.88;;;1.70;;
21591;SDS011;10958;50.892;3.992;2022-09-09T02:12:16;4.97;;;1.45;;
21591;SDS011;10958;50.892;3.992;2022-09-09T02:15:06;8.43;;;1.70;;
21591;SDS011;10958;50.892;3.992;2022-09-09T02:18:07;4.20;;;1.55;;
21591;SDS011;10958;50.892;3.992;2022-09-09T02:21:17;5.00;;;1.63;;
21591;SDS011;10958;50.892;3.992;2022-09-09T02:23:54;7.55;;;2.20;;
21591;SDS011;10958;50.892;3.992;2022-09-09T02:26:35;5.90;;;1.55;;
21591;SDS011;10958;50.892;3.992;2022-09-09T02:32:30;7.78;;;1.60;;
21591;SDS011;10958;50.892;3.992;2022-09-09T02:35:18;7.05;;;1.80;;
21591;SDS011;10958;50.892;3.992;2022-09-09T02:44:20;6.63;;;2.17;;
21591;SDS011;10958;50.892;3.992;2022-09-09T02:59:49;9.48;;;2.00;;
21591;SDS011;10958;50.892;3.992;2022-09-09T03:03:22;7.72;;;1.80;;
21591;SDS011;10958;50.892;3.992;2022-09-09T03:09:11;8.20;;;1.60;;
21591;SDS011;10958;50.892;3.992;2022-09-09T03:12:32;4.82;;;1.50;;
21591;SDS011;10958;50.892;3.992;2022-09-09T03:15:58;7.60;;;1.75;;
21591;SDS011;10958;50.892;3.992;2022-09-09T03:33:58;10.75;;;1.92;;
21591;SDS011;10958;50.892;3.992;2022-09-09T03:39:47;11.35;;;2.35;;
21591;SDS011;10958;50.892;3.992;2022-09-09T03:42:19;12.35;;;2.22;;
21591;SDS011;10958;50.892;3.992;2022-09-09T03:45:24;5.88;;;1.75;;
21591;SDS011;10958;50.892;3.992;2022-09-09T03:48:16;10.63;;;1.90;;
21591;SDS011;10958;50.892;3.992;2022-09-09T03:54:20;5.90;;;1.70;;
21591;SDS011;10958;50.892;3.992;2022-09-09T03:57:44;11.65;;;1.85;;
21591;SDS011;10958;50.892;3.992;2022-09-09T04:00:35;7.53;;;1.90;;
21591;SDS011;10958;50.892;3.992;2022-09-09T04:03:11;10.40;;;2.35;;
21591;SDS011;10958;50.892;3.992;2022-09-09T04:05:58;17.98;;;2.53;;
21591;SDS011;10958;50.892;3.992;2022-09-09T04:13:33;8.32;;;2.10;;
21591;SDS011;10958;50.892;3.992;2022-09-09T04:16:01;9.45;;;2.53;;
21591;SDS011;10958;50.892;3.992;2022-09-09T04:18:28;11.85;;;1.92;;
21591;SDS011;10958;50.892;3.992;2022-09-09T04:20:54;13.13;;;2.25;;
21591;SDS011;10958;50.892;3.992;2022-09-09T04:23:31;10.52;;;2.17;;
21591;SDS011;10958;50.892;3.992;2022-09-09T04:26:21;8.93;;;1.85;;
21591;SDS011;10958;50.892;3.992;2022-09-09T04:35:28;11.40;;;2.20;;
21591;SDS011;10958;50.892;3.992;2022-09-09T04:42:21;12.85;;;1.95;;
21591;SDS011;10958;50.892;3.992;2022-09-09T04:45:22;9.48;;;2.30;;
21591;SDS011;10958;50.892;3.992;2022-09-09T04:55:34;13.75;;;1.92;;
21591;SDS011;10958;50.892;3.992;2022-09-09T05:04:53;13.38;;;2.15;;
21591;SDS011;10958;50.892;3.992;2022-09-09T05:11:20;9.63;;;2.08;;
21591;SDS011;10958;50.892;3.992;2022-09-09T05:24:58;12.80;;;2.00;;
21591;SDS011;10958;50.892;3.992;2022-09-09T05:28:10;10.65;;;1.92;;
21591;SDS011;10958;50.892;3.992;2022-09-09T05:31:15;12.98;;;2.67;;
21591;SDS011;10958;50.892;3.992;2022-09-09T05:37:30;14.93;;;1.90;;
21591;SDS011;10958;50.892;3.992;2022-09-09T05:40:33;9.07;;;1.75;;
21591;SDS011;10958;50.892;3.992;2022-09-09T05:46:07;8.43;;;1.75;;
21591;SDS011;10958;50.892;3.992;2022-09-09T05:54:20;10.50;;;2.00;;
21591;SDS011;10958;50.892;3.992;2022-09-09T06:00:07;10.98;;;2.08;;
21591;SDS011;10958;50.892;3.992;2022-09-09T06:06:10;15.48;;;2.20;;
21591;SDS011;10958;50.892;3.992;2022-09-09T06:09:19;6.90;;;1.75;;
21591;SDS011;10958;50.892;3.992;2022-09-09T06:12:16;10.82;;;2.22;;
21591;SDS011;10958;50.892;3.992;2022-09-09T06:21:36;14.90;;;1.95;;
21591;SDS011;10958;50.892;3.992;2022-09-09T06:24:11;9.50;;;2.40;;
21591;SDS011;10958;50.892;3.992;2022-09-09T06:30:35;10.45;;;1.65;;
21591;SDS011;10958;50.892;3.992;2022-09-09T06:33:16;8.88;;;1.60;;
21591;SDS011;10958;50.892;3.992;2022-09-09T06:36:13;6.03;;;1.83;;
21591;SDS011;10958;50.892;3.992;2022-09-09T06:41:39;10.52;;;1.75;;
21591;SDS011;10958;50.892;3.992;2022-09-09T06:50:44;9.55;;;1.73;;
21591;SDS011;10958;50.892;3.992;2022-09-09T06:53:26;10.20;;;1.73;;
21591;SDS011;10958;50.892;3.992;2022-09-09T06:59:34;8.15;;;2.13;;
21591;SDS011;10958;50.892;3.992;2022-09-09T07:07:42;6.78;;;1.48;;
21591;SDS011;10958;50.892;3.992;2022-09-09T07:27:55;7.05;;;1.45;;
21591;SDS011;10958;50.892;3.992;2022-09-09T07:34:41;7.57;;;1.85;;
21591;SDS011;10958;50.892;3.992;2022-09-09T07:44:31;10.60;;;1.90;;
21591;SDS011;10958;50.892;3.992;2022-09-09T08:02:47;10.55;;;1.60;;
21591;SDS011;10958;50.892;3.992;2022-09-09T08:16:22;8.75;;;1.48;;
21591;SDS011;10958;50.892;3.992;2022-09-09T08:18:58;7.63;;;1.90;;
21591;SDS011;10958;50.892;3.992;2022-09-09T08:22:12;8.20;;;1.75;;
21591;SDS011;10958;50.892;3.992;2022-09-09T08:31:51;7.07;;;1.67;;
21591;SDS011;10958;50.892;3.992;2022-09-09T08:34:33;5.75;;;1.45;;
21591;SDS011;10958;50.892;3.992;2022-09-09T08:58:25;6.40;;;1.65;;
21591;SDS011;10958;50.892;3.992;2022-09-09T09:19:25;13.07;;;1.90;;
21591;SDS011;10958;50.892;3.992;2022-09-09T09:42:37;7.55;;;1.98;;
21591;SDS011;10958;50.892;3.992;2022-09-09T09:45:48;8.07;;;1.48;;
21591;SDS011;10958;50.892;3.992;2022-09-09T10:03:50;7.72;;;1.55;;
21591;SDS011;10958;50.892;3.992;2022-09-09T10:19:26;4.45;;;1.40;;
21591;SDS011;10958;50.892;3.992;2022-09-09T10:44:47;5.95;;;1.20;;
21591;SDS011;10958;50.892;3.992;2022-09-09T10:57:58;4.60;;;1.10;;
21591;SDS011;10958;50.892;3.992;2022-09-09T11:08:03;4.78;;;1.20;;
21591;SDS011;10958;50.892;3.992;2022-09-09T11:46:31;3.50;;;1.30;;
21591;SDS011;10958;50.892;3.992;2022-09-09T11:52:10;7.47;;;1.27;;
21591;SDS011;10958;50.892;3.992;2022-09-09T12:12:49;5.05;;;1.58;;
21591;SDS011;10958;50.892;3.992;2022-09-09T12:15:20;3.00;;;1.00;;
21591;SDS011;10958;50.892;3.992;2022-09-09T12:17:54;8.77;;;1.65;;
21591;SDS011;10958;50.892;3.992;2022-09-09T12:20:42;4.25;;;1.35;;
21591;SDS011;10958;50.892;3.992;2022-09-09T12:28:45;5.60;;;1.13;;
21591;SDS011;10958;50.892;3.992;2022-09-09T12:34:28;5.63;;;1.50;;
21591;SDS011;10958;50.892;3.992;2022-09-09T12:37:36;3.35;;;1.08;;
21591;SDS011;10958;50.892;3.992;2022-09-09T12:43:14;5.13;;;1.02;;
21591;SDS011;10958;50.892;3.992;2022-09-09T12:45:46;2.53;;;1.02;;
21591;SDS011;10958;50.892;3.992;2022-09-09T12:48:15;3.25;;;1.30;;
21591;SDS011;10958;50.892;3.992;2022-09-09T12:50:48;13.60;;;2.13;;
21591;SDS011;10958;50.892;3.992;2022-09-09T12:53:21;6.03;;;1.50;;
21591;SDS011;10958;50.892;3.992;2022-09-09T12:55:57;3.50;;;1.38;;
21591;SDS011;10958;50.892;3.992;2022-09-09T12:58:35;4.28;;;1.35;;
21591;SDS011;10958;50.892;3.992;2022-09-09T13:01:05;4.68;;;1.30;;
21591;SDS011;10958;50.892;3.992;2022-09-09T13:03:46;2.92;;;1.30;;
21591;SDS011;10958;50.892;3.992;2022-09-09T13:11:30;4.40;;;1.08;;
21591;SDS011;10958;50.892;3.992;2022-09-09T13:14:14;3.20;;;1.05;;
21591;SDS011;10958;50.892;3.992;2022-09-09T13:16:54;2.80;;;1.30;;
21591;SDS011;10958;50.892;3.992;2022-09-09T13:19:24;3.17;;;1.15;;
21591;SDS011;10958;50.892;3.992;2022-09-09T13:21:52;3.13;;;1.05;;
21591;SDS011;10958;50.892;3.992;2022-09-09T13:24:32;2.80;;;1.00;;
21591;SDS011;10958;50.892;3.992;2022-09-09T13:27:03;4.07;;;1.40;;
21591;SDS011;10958;50.892;3.992;2022-09-09T13:29:54;6.32;;;1.30;;
21591;SDS011;10958;50.892;3.992;2022-09-09T13:32:22;4.68;;;1.17;;
21591;SDS011;10958;50.892;3.992;2022-09-09T13:34:57;2.10;;;0.70;;
21591;SDS011;10958;50.892;3.992;2022-09-09T13:37:36;2.75;;;0.90;;
21591;SDS011;10958;50.892;3.992;2022-09-09T13:40:16;2.88;;;0.98;;
21591;SDS011;10958;50.892;3.992;2022-09-09T13:42:55;3.22;;;1.08;;
21591;SDS011;10958;50.892;3.992;2022-09-09T13:45:27;3.72;;;1.48;;
21591;SDS011;10958;50.892;3.992;2022-09-09T13:48:00;3.50;;;0.90;;
21591;SDS011;10958;50.892;3.992;2022-09-09T13:50:34;4.03;;;1.50;;
21591;SDS011;10958;50.892;3.992;2022-09-09T13:53:16;4.47;;;1.00;;
21591;SDS011;10958;50.892;3.992;2022-09-09T13:55:47;4.07;;;1.35;;
21591;SDS011;10958;50.892;3.992;2022-09-09T13:58:14;2.00;;;0.98;;
21591;SDS011;10958;50.892;3.992;2022-09-09T14:00:44;3.78;;;1.08;;
21591;SDS011;10958;50.892;3.992;2022-09-09T14:03:16;3.42;;;0.93;;
21591;SDS011;10958;50.892;3.992;2022-09-09T14:05:44;2.38;;;0.95;;
21591;SDS011;10958;50.892;3.992;2022-09-09T14:08:34;5.45;;;0.93;;
21591;SDS011;10958;50.892;3.992;2022-09-09T14:11:03;5.38;;;1.08;;
21591;SDS011;10958;50.892;3.992;2022-09-09T14:13:33;4.53;;;1.08;;
21591;SDS011;10958;50.892;3.992;2022-09-09T14:16:17;4.57;;;1.10;;
21591;SDS011;10958;50.892;3.992;2022-09-09T14:18:45;3.10;;;1.25;;
21591;SDS011;10958;50.892;3.992;2022-09-09T14:21:17;5.53;;;1.30;;
21591;SDS011;10958;50.892;3.992;2022-09-09T14:23:45;3.35;;;1.30;;
21591;SDS011;10958;50.892;3.992;2022-09-09T14:26:14;3.17;;;1.33;;
21591;SDS011;10958;50.892;3.992;2022-09-09T14:28:48;4.75;;;0.90;;
21591;SDS011;10958;50.892;3.992;2022-09-09T14:31:19;4.53;;;1.20;;
21591;SDS011;10958;50.892;3.992;2022-09-09T14:33:48;2.72;;;1.17;;
21591;SDS011;10958;50.892;3.992;2022-09-09T14:36:16;4.97;;;1.05;;
21591;SDS011;10958;50.892;3.992;2022-09-09T14:38:53;5.60;;;1.40;;
21591;SDS011;10958;50.892;3.992;2022-09-09T14:41:22;4.97;;;1.25;;
21591;SDS011;10958;50.892;3.992;2022-09-09T14:43:52;3.28;;;1.27;;
21591;SDS011;10958;50.892;3.992;2022-09-09T14:46:19;3.03;;;0.82;;
21591;SDS011;10958;50.892;3.992;2022-09-09T14:48:54;3.80;;;1.15;;
21591;SDS011;10958;50.892;3.992;2022-09-09T14:51:26;4.20;;;1.17;;
21591;SDS011;10958;50.892;3.992;2022-09-09T14:53:54;4.28;;;1.23;;
21591;SDS011;10958;50.892;3.992;2022-09-09T14:56:23;3.70;;;1.30;;
21591;SDS011;10958;50.892;3.992;2022-09-09T14:58:59;2.70;;;1.00;;
21591;SDS011;10958;50.892;3.992;2022-09-09T15:01:32;2.97;;;0.90;;
21591;SDS011;10958;50.892;3.992;2022-09-09T15:04:00;5.20;;;1.00;;
21591;SDS011;10958;50.892;3.992;2022-09-09T15:06:28;2.55;;;1.13;;
21591;SDS011;10958;50.892;3.992;2022-09-09T15:08:59;3.90;;;1.23;;
21591;SDS011;10958;50.892;3.992;2022-09-09T15:11:27;4.22;;;1.20;;
21591;SDS011;10958;50.892;3.992;2022-09-09T15:13:58;2.85;;;0.70;;
21591;SDS011;10958;50.892;3.992;2022-09-09T15:18:52;3.08;;;0.88;;
21591;SDS011;10958;50.892;3.992;2022-09-09T15:21:20;3.47;;;1.08;;
21591;SDS011;10958;50.892;3.992;2022-09-09T15:23:47;2.03;;;0.90;;
21591;SDS011;10958;50.892;3.992;2022-09-09T15:26:15;4.55;;;1.10;;
21591;SDS011;10958;50.892;3.992;2022-09-09T15:28:47;16.30;;;14.75;;
21591;SDS011;10958;50.892;3.992;2022-09-09T15:34:03;4.32;;;1.20;;
21591;SDS011;10958;50.892;3.992;2022-09-09T15:36:49;4.90;;;1.45;;
21591;SDS011;10958;50.892;3.992;2022-09-09T15:39:16;7.22;;;1.52;;
21591;SDS011;10958;50.892;3.992;2022-09-09T15:41:43;5.05;;;1.50;;
21591;SDS011;10958;50.892;3.992;2022-09-09T15:44:19;4.60;;;1.50;;
21591;SDS011;10958;50.892;3.992;2022-09-09T15:46:54;4.43;;;1.38;;
21591;SDS011;10958;50.892;3.992;2022-09-09T15:49:20;4.03;;;1.38;;
21591;SDS011;10958;50.892;3.992;2022-09-09T15:51:51;3.90;;;1.40;;
21591;SDS011;10958;50.892;3.992;2022-09-09T15:54:30;4.68;;;1.63;;
21591;SDS011;10958;50.892;3.992;2022-09-09T15:56:59;2.33;;;1.25;;
21591;SDS011;10958;50.892;3.992;2022-09-09T15:59:27;3.60;;;1.50;;
21591;SDS011;10958;50.892;3.992;2022-09-09T16:04:33;4.20;;;1.30;;
21591;SDS011;10958;50.892;3.992;2022-09-09T16:07:01;3.17;;;1.50;;
21591;SDS011;10958;50.892;3.992;2022-09-09T16:09:30;2.45;;;1.13;;
21591;SDS011;10958;50.892;3.992;2022-09-09T16:12:01;2.63;;;0.90;;
21591;SDS011;10958;50.892;3.992;2022-09-09T16:14:31;3.92;;;1.02;;
21591;SDS011;10958;50.892;3.992;2022-09-09T16:17:00;2.65;;;0.90;;
21591;SDS011;10958;50.892;3.992;2022-09-09T16:19:27;1.98;;;0.80;;
21591;SDS011;10958;50.892;3.992;2022-09-09T16:21:56;1.38;;;0.77;;
21591;SDS011;10958;50.892;3.992;2022-09-09T16:24:24;3.72;;;0.60;;
21591;SDS011;10958;50.892;3.992;2022-09-09T16:26:51;1.17;;;0.60;;
21591;SDS011;10958;50.892;3.992;2022-09-09T16:29:19;1.35;;;0.70;;
21591;SDS011;10958;50.892;3.992;2022-09-09T16:31:56;2.17;;;0.70;;
21591;SDS011;10958;50.892;3.992;2022-09-09T16:34:24;1.83;;;0.80;;
21591;SDS011;10958;50.892;3.992;2022-09-09T16:36:50;1.33;;;0.60;;
21591;SDS011;10958;50.892;3.992;2022-09-09T16:39:17;2.88;;;0.70;;
21591;SDS011;10958;50.892;3.992;2022-09-09T16:41:45;1.63;;;0.63;;
21591;SDS011;10958;50.892;3.992;2022-09-09T16:44:13;1.27;;;0.70;;
21591;SDS011;10958;50.892;3.992;2022-09-09T16:46:44;3.47;;;1.05;;
21591;SDS011;10958;50.892;3.992;2022-09-09T16:49:16;3.38;;;0.77;;
21591;SDS011;10958;50.892;3.992;2022-09-09T16:51:46;2.75;;;0.95;;
21591;SDS011;10958;50.892;3.992;2022-09-09T16:54:14;2.38;;;0.90;;
21591;SDS011;10958;50.892;3.992;2022-09-09T16:56:42;2.30;;;0.80;;
21591;SDS011;10958;50.892;3.992;2022-09-09T16:59:11;3.50;;;0.82;;
21591;SDS011;10958;50.892;3.992;2022-09-09T17:01:43;1.63;;;0.88;;
21591;SDS011;10958;50.892;3.992;2022-09-09T17:04:11;5.32;;;1.10;;
21591;SDS011;10958;50.892;3.992;2022-09-09T17:06:40;4.07;;;0.95;;
21591;SDS011;10958;50.892;3.992;2022-09-09T17:09:10;4.35;;;1.25;;
21591;SDS011;10958;50.892;3.992;2022-09-09T17:11:39;8.52;;;1.33;;
21591;SDS011;10958;50.892;3.992;2022-09-09T17:14:06;3.10;;;1.00;;
21591;SDS011;10958;50.892;3.992;2022-09-09T17:16:34;3.55;;;0.90;;
21591;SDS011;10958;50.892;3.992;2022-09-09T17:19:04;5.15;;;1.10;;
21591;SDS011;10958;50.892;3.992;2022-09-09T17:21:30;6.78;;;1.05;;
21591;SDS011;10958;50.892;3.992;2022-09-09T17:23:57;5.65;;;0.93;;
21591;SDS011;10958;50.892;3.992;2022-09-09T17:26:25;2.60;;;0.80;;
21591;SDS011;10958;50.892;3.992;2022-09-09T17:28:59;7.05;;;1.27;;
21591;SDS011;10958;50.892;3.992;2022-09-09T17:31:29;4.70;;;0.98;;
21591;SDS011;10958;50.892;3.992;2022-09-09T17:33:57;2.25;;;0.80;;
21591;SDS011;10958;50.892;3.992;2022-09-09T17:36:28;5.45;;;1.08;;
21591;SDS011;10958;50.892;3.992;2022-09-09T17:38:56;3.67;;;1.30;;
21591;SDS011;10958;50.892;3.992;2022-09-09T17:41:25;4.13;;;1.00;;
21591;SDS011;10958;50.892;3.992;2022-09-09T17:44:03;4.23;;;0.90;;
21591;SDS011;10958;50.892;3.992;2022-09-09T17:46:30;6.25;;;1.10;;
21591;SDS011;10958;50.892;3.992;2022-09-09T17:49:00;5.53;;;1.13;;
21591;SDS011;10958;50.892;3.992;2022-09-09T17:51:32;4.97;;;1.15;;
21591;SDS011;10958;50.892;3.992;2022-09-09T17:54:04;3.97;;;1.30;;
21591;SDS011;10958;50.892;3.992;2022-09-09T17:56:35;7.00;;;1.23;;
21591;SDS011;10958;50.892;3.992;2022-09-09T17:59:04;3.05;;;1.00;;
21591;SDS011;10958;50.892;3.992;2022-09-09T18:01:32;5.40;;;1.20;;
21591;SDS011;10958;50.892;3.992;2022-09-09T18:04:04;5.15;;;0.98;;
21591;SDS011;10958;50.892;3.992;2022-09-09T18:06:34;3.72;;;1.20;;
21591;SDS011;10958;50.892;3.992;2022-09-09T18:09:03;4.50;;;0.88;;
21591;SDS011;10958;50.892;3.992;2022-09-09T18:11:33;5.40;;;1.10;;
21591;SDS011;10958;50.892;3.992;2022-09-09T18:14:03;7.28;;;1.38;;
21591;SDS011;10958;50.892;3.992;2022-09-09T18:16:30;3.38;;;0.90;;
21591;SDS011;10958;50.892;3.992;2022-09-09T18:19:00;5.57;;;1.13;;
21591;SDS011;10958;50.892;3.992;2022-09-09T18:21:28;10.80;;;1.60;;
21591;SDS011;10958;50.892;3.992;2022-09-09T18:26:34;9.65;;;1.67;;
21591;SDS011;10958;50.892;3.992;2022-09-09T18:29:04;8.40;;;1.30;;
21591;SDS011;10958;50.892;3.992;2022-09-09T18:31:32;7.40;;;1.52;;
21591;SDS011;10958;50.892;3.992;2022-09-09T18:33:59;5.85;;;1.40;;
21591;SDS011;10958;50.892;3.992;2022-09-09T18:36:37;7.85;;;1.52;;
21591;SDS011;10958;50.892;3.992;2022-09-09T18:39:05;8.25;;;1.67;;
21591;SDS011;10958;50.892;3.992;2022-09-09T18:41:38;7.78;;;1.40;;
21591;SDS011;10958;50.892;3.992;2022-09-09T18:44:07;7.20;;;1.80;;
21591;SDS011;10958;50.892;3.992;2022-09-09T18:46:37;6.80;;;1.45;;
21591;SDS011;10958;50.892;3.992;2022-09-09T18:49:05;8.63;;;1.67;;
21591;SDS011;10958;50.892;3.992;2022-09-09T18:51:32;5.93;;;1.08;;
21591;SDS011;10958;50.892;3.992;2022-09-09T18:54:05;9.13;;;1.45;;
21591;SDS011;10958;50.892;3.992;2022-09-09T18:56:33;7.05;;;1.65;;
21591;SDS011;10958;50.892;3.992;2022-09-09T18:59:00;6.18;;;1.23;;
21591;SDS011;10958;50.892;3.992;2022-09-09T19:01:28;6.60;;;1.40;;
21591;SDS011;10958;50.892;3.992;2022-09-09T19:03:55;11.80;;;1.80;;
21591;SDS011;10958;50.892;3.992;2022-09-09T19:06:22;6.00;;;1.42;;
21591;SDS011;10958;50.892;3.992;2022-09-09T19:08:51;9.35;;;1.63;;
21591;SDS011;10958;50.892;3.992;2022-09-09T19:11:22;7.22;;;1.23;;
21591;SDS011;10958;50.892;3.992;2022-09-09T19:13:59;5.43;;;1.40;;
21591;SDS011;10958;50.892;3.992;2022-09-09T19:16:27;5.40;;;1.45;;
21591;SDS011;10958;50.892;3.992;2022-09-09T19:18:58;4.60;;;1.10;;
21591;SDS011;10958;50.892;3.992;2022-09-09T19:21:36;7.78;;;1.00;;
21591;SDS011;10958;50.892;3.992;2022-09-09T19:26:41;6.75;;;1.35;;
21591;SDS011;10958;50.892;3.992;2022-09-09T19:29:10;5.13;;;1.20;;
21591;SDS011;10958;50.892;3.992;2022-09-09T19:31:47;4.72;;;1.30;;
21591;SDS011;10958;50.892;3.992;2022-09-09T19:34:14;5.10;;;1.38;;
21591;SDS011;10958;50.892;3.992;2022-09-09T19:36:40;4.90;;;1.33;;
21591;SDS011;10958;50.892;3.992;2022-09-09T19:39:08;4.93;;;1.55;;
21591;SDS011;10958;50.892;3.992;2022-09-09T19:41:42;9.45;;;1.17;;
21591;SDS011;10958;50.892;3.992;2022-09-09T19:44:09;3.88;;;0.98;;
21591;SDS011;10958;50.892;3.992;2022-09-09T19:46:37;4.82;;;1.23;;
21591;SDS011;10958;50.892;3.992;2022-09-09T19:49:07;4.82;;;1.35;;
21591;SDS011;10958;50.892;3.992;2022-09-09T19:51:36;4.22;;;1.20;;
21591;SDS011;10958;50.892;3.992;2022-09-09T19:56:30;8.88;;;1.90;;
21591;SDS011;10958;50.892;3.992;2022-09-09T21:16:22;8.02;;;2.92;;
21591;SDS011;10958;50.892;3.992;2022-09-09T21:18:53;9.63;;;3.15;;
21591;SDS011;10958;50.892;3.992;2022-09-09T21:21:23;9.70;;;2.53;;
21591;SDS011;10958;50.892;3.992;2022-09-09T21:23:52;8.75;;;3.03;;
21591;SDS011;10958;50.892;3.992;2022-09-09T21:26:22;8.98;;;3.17;;
21591;SDS011;10958;50.892;3.992;2022-09-09T21:28:57;8.45;;;2.70;;
21591;SDS011;10958;50.892;3.992;2022-09-09T21:31:26;6.75;;;2.88;;
21591;SDS011;10958;50.892;3.992;2022-09-09T21:33:52;9.20;;;3.10;;
21591;SDS011;10958;50.892;3.992;2022-09-09T21:36:30;8.57;;;3.13;;
21591;SDS011;10958;50.892;3.992;2022-09-09T22:46:07;10.55;;;3.10;;
21591;SDS011;10958;50.892;3.992;2022-09-09T22:48:42;11.07;;;3.20;;
21591;SDS011;10958;50.892;3.992;2022-09-09T22:51:13;13.80;;;3.08;;
21591;SDS011;10958;50.892;3.992;2022-09-09T22:53:40;13.30;;;3.10;;
21591;SDS011;10958;50.892;3.992;2022-09-09T22:56:26;10.38;;;2.92;;
21591;SDS011;10958;50.892;3.992;2022-09-09T22:58:55;8.02;;;2.90;;
21591;SDS011;10958;50.892;3.992;2022-09-09T23:04:05;8.32;;;3.35;;
21591;SDS011;10958;50.892;3.992;2022-09-09T23:06:49;7.88;;;3.50;;
21591;SDS011;10958;50.892;3.992;2022-09-09T23:09:23;5.65;;;3.05;;
21591;SDS011;10958;50.892;3.992;2022-09-09T23:14:25;14.10;;;4.35;;
21591;SDS011;10958;50.892;3.992;2022-09-09T23:24:38;12.68;;;4.50;;
21591;SDS011;10958;50.892;3.992;2022-09-09T23:27:04;11.45;;;4.15;;
21591;SDS011;10958;50.892;3.992;2022-09-09T23:32:08;10.50;;;4.25;;
21591;SDS011;10958;50.892;3.992;2022-09-09T23:44:56;10.00;;;4.55;;
21591;SDS011;10958;50.892;3.992;2022-09-09T23:47:25;11.25;;;4.13;;
21591;SDS011;10958;50.892;3.992;2022-09-09T23:49:52;11.30;;;4.57;;
21591;SDS011;10958;50.892;3.992;2022-09-09T23:52:21;7.63;;;4.03;;
21591;SDS011;10958;50.892;3.992;2022-09-09T23:54:50;9.95;;;4.32;;
21591;SDS011;10958;50.892;3.992;2022-09-09T23:57:18;12.80;;;4.10;;
21591;SDS011;10958;50.892;3.992;2022-09-09T23:59:45;14.73;;;4.85;;
